createdAt,value
2019-05-02T00:01:01.264Z,34.30
2019-05-02T00:03:35.982Z,32.77
2019-05-02T00:06:09.322Z,32.80
2019-05-02T00:08:40.857Z,34.50
2019-05-02T00:11:13.367Z,28.73
2019-05-02T00:13:45.360Z,33.00
2019-05-02T00:16:17.007Z,31.77
2019-05-02T00:18:48.285Z,31.03
2019-05-02T00:21:20.328Z,29.20
2019-05-02T00:23:51.625Z,30.83
2019-05-02T00:26:24.538Z,31.23
2019-05-02T00:28:56.356Z,30.93
2019-05-02T00:31:28.053Z,32.13
2019-05-02T00:33:59.415Z,34.93
2019-05-02T00:36:30.772Z,30.67
2019-05-02T00:39:02.566Z,31.93
2019-05-02T00:41:38.447Z,30.43
2019-05-02T00:44:11.074Z,33.80
2019-05-02T00:46:42.085Z,33.10
2019-05-02T00:49:13.580Z,32.53
2019-05-02T00:51:45.016Z,29.50
2019-05-02T00:54:19.145Z,31.13
2019-05-02T00:56:49.579Z,29.87
2019-05-02T00:59:20.878Z,31.47
2019-05-02T01:02:00.087Z,37.67
2019-05-02T01:04:36.854Z,33.40
2019-05-02T01:07:09.224Z,36.00
2019-05-02T01:09:42.118Z,32.43
2019-05-02T01:12:25.803Z,31.40
2019-05-02T01:14:46.583Z,32.10
2019-05-02T01:17:18.249Z,32.80
2019-05-02T01:19:51.504Z,32.10
2019-05-02T01:22:23.042Z,34.17
2019-05-02T01:24:54.739Z,31.50
2019-05-02T01:27:41.144Z,32.13
2019-05-02T01:30:30.260Z,36.73
2019-05-02T01:33:07.846Z,37.00
2019-05-02T01:35:50.841Z,33.57
2019-05-02T01:38:31.801Z,34.60
2019-05-02T01:41:04.033Z,33.63
2019-05-02T01:43:35.708Z,35.60
2019-05-02T01:46:07.160Z,41.60
2019-05-02T01:48:40.023Z,36.33
2019-05-02T01:51:12.135Z,40.10
2019-05-02T01:53:43.526Z,36.90
2019-05-02T01:56:15.213Z,41.73
2019-05-02T01:58:47.080Z,42.67
2019-05-02T02:01:21.391Z,35.67
2019-05-02T02:03:51.837Z,37.47
2019-05-02T02:06:23.317Z,36.97
2019-05-02T02:08:55.067Z,34.13
2019-05-02T02:11:28.499Z,34.83
2019-05-02T02:13:59.559Z,35.87
2019-05-02T02:16:35.228Z,33.47
2019-05-02T02:19:22.182Z,31.00
2019-05-02T02:22:23.644Z,29.13
2019-05-02T02:25:14.301Z,30.07
2019-05-02T02:27:45.517Z,31.33
2019-05-02T02:30:17.892Z,34.43
2019-05-02T02:32:50.376Z,32.80
2019-05-02T02:35:21.791Z,32.17
2019-05-02T02:37:55.712Z,32.63
2019-05-02T02:40:32.785Z,36.90
2019-05-02T02:43:12.791Z,36.77
2019-05-02T02:46:09.505Z,37.43
2019-05-02T02:48:42.671Z,35.60
2019-05-02T02:51:22.165Z,38.53
2019-05-02T02:53:47.389Z,36.07
2019-05-02T02:56:18.882Z,34.07
2019-05-02T02:58:50.163Z,33.20
2019-05-02T03:01:28.723Z,31.80
2019-05-02T03:03:54.902Z,35.33
2019-05-02T03:06:26.491Z,33.97
2019-05-02T03:08:57.917Z,35.37
2019-05-02T03:11:35.124Z,37.63
2019-05-02T03:14:12.723Z,38.53
2019-05-02T03:16:47.117Z,38.87
2019-05-02T03:19:21.089Z,34.63
2019-05-02T03:21:54.251Z,35.83
2019-05-02T03:24:27.984Z,42.97
2019-05-02T03:26:59.396Z,38.63
2019-05-02T03:29:41.129Z,37.53
2019-05-02T03:32:14.997Z,43.23
2019-05-02T03:34:47.547Z,36.33
2019-05-02T03:37:13.854Z,39.87
2019-05-02T03:39:49.546Z,36.07
2019-05-02T03:42:18.058Z,34.43
2019-05-02T03:44:56.989Z,33.60
2019-05-02T03:47:23.039Z,35.17
2019-05-02T03:49:54.478Z,37.50
2019-05-02T03:52:25.982Z,37.50
2019-05-02T03:54:57.583Z,40.90
2019-05-02T03:57:33.387Z,38.07
2019-05-02T04:00:02.844Z,37.87
2019-05-02T04:02:35.329Z,40.43
2019-05-02T04:05:07.018Z,38.87
2019-05-02T04:07:40.843Z,40.43
2019-05-02T04:10:20.182Z,40.67
2019-05-02T04:12:53.238Z,39.73
2019-05-02T04:15:20.589Z,38.27
2019-05-02T04:17:54.678Z,39.93
2019-05-02T04:20:26.294Z,38.87
2019-05-02T04:23:06.794Z,42.47
2019-05-02T04:25:38.418Z,42.37
2019-05-02T04:28:12.055Z,42.10
2019-05-02T04:30:45.132Z,41.77
2019-05-02T04:33:16.159Z,41.43
2019-05-02T04:35:47.595Z,42.60
2019-05-02T04:38:21.421Z,45.00
2019-05-02T04:40:52.409Z,47.27
2019-05-02T04:43:28.592Z,43.13
2019-05-02T04:46:00.132Z,45.73
2019-05-02T04:48:34.551Z,46.43
2019-05-02T04:51:10.285Z,43.23
2019-05-02T04:53:44.360Z,40.87
2019-05-02T04:56:12.489Z,47.13
2019-05-02T04:58:44.300Z,42.40
2019-05-02T05:01:15.664Z,44.80
2019-05-02T05:03:49.263Z,45.97
2019-05-02T05:06:20.170Z,47.93
2019-05-02T05:08:51.691Z,52.80
2019-05-02T05:11:24.959Z,47.77
2019-05-02T05:13:58.992Z,53.77
2019-05-02T05:16:28.855Z,51.60
2019-05-02T05:19:00.224Z,54.97
2019-05-02T05:21:31.535Z,53.40
2019-05-02T05:24:24.875Z,52.40
2019-05-02T05:26:57.818Z,45.20
2019-05-02T05:29:31.164Z,43.07
2019-05-02T05:32:07.855Z,43.17
2019-05-02T05:34:37.990Z,37.90
2019-05-02T05:37:13.434Z,39.40
2019-05-02T05:39:47.940Z,41.60
2019-05-02T05:42:17.815Z,38.43
2019-05-02T05:44:50.560Z,33.97
2019-05-02T05:47:21.739Z,39.00
2019-05-02T05:49:57.590Z,43.53
2019-05-02T05:52:28.269Z,38.10
2019-05-02T05:55:00.115Z,39.77
2019-05-02T05:57:31.420Z,39.30
2019-05-02T06:00:11.938Z,34.47
2019-05-02T06:02:52.349Z,34.30
2019-05-02T06:05:10.707Z,36.90
2019-05-02T06:07:44.947Z,29.73
2019-05-02T06:10:15.386Z,27.83
2019-05-02T06:12:47.249Z,32.07
2019-05-02T06:15:18.797Z,28.37
2019-05-02T06:17:50.065Z,29.53
2019-05-02T06:20:25.758Z,31.43
2019-05-02T06:22:59.549Z,33.10
2019-05-02T06:25:34.160Z,25.87
2019-05-02T06:28:05.319Z,28.20
2019-05-02T06:30:34.319Z,28.60
2019-05-02T06:33:06.705Z,27.30
2019-05-02T06:35:38.542Z,27.73
2019-05-02T06:38:09.838Z,28.20
2019-05-02T06:40:44.713Z,29.37
2019-05-02T06:43:15.453Z,25.83
2019-05-02T06:45:46.951Z,29.27
2019-05-02T06:48:19.112Z,23.87
2019-05-02T06:50:51.012Z,25.70
2019-05-02T06:53:24.013Z,21.97
2019-05-02T06:55:55.718Z,27.87
2019-05-02T06:58:27.110Z,23.43
2019-05-02T07:00:59.172Z,24.40
2019-05-02T07:03:30.821Z,22.67
2019-05-02T07:06:02.916Z,22.80
2019-05-02T07:08:35.739Z,23.00
2019-05-02T07:11:07.499Z,24.33
2019-05-02T07:13:41.877Z,22.30
2019-05-02T07:16:36.883Z,20.50
2019-05-02T07:19:16.254Z,23.03
2019-05-02T07:21:46.436Z,21.00
2019-05-02T07:24:17.797Z,22.60
2019-05-02T07:26:52.182Z,20.20
2019-05-02T07:29:23.152Z,22.67
2019-05-02T07:31:54.712Z,23.53
2019-05-02T07:34:26.129Z,20.70
2019-05-02T07:36:57.871Z,17.87
2019-05-02T07:39:29.545Z,18.13
2019-05-02T07:42:05.866Z,19.20
2019-05-02T07:44:34.549Z,20.33
2019-05-02T07:47:06.068Z,23.53
2019-05-02T07:49:37.916Z,17.83
2019-05-02T07:52:09.351Z,19.43
2019-05-02T07:54:40.707Z,17.10
2019-05-02T07:57:12.786Z,19.53
2019-05-02T07:59:44.187Z,19.97
2019-05-02T08:02:15.658Z,18.43
2019-05-02T08:04:47.294Z,20.27
2019-05-02T08:07:21.124Z,17.40
2019-05-02T08:09:51.997Z,20.43
2019-05-02T08:12:23.405Z,18.53
2019-05-02T08:14:54.672Z,16.17
2019-05-02T08:17:26.184Z,19.40
2019-05-02T08:19:57.917Z,16.30
2019-05-02T08:22:29.221Z,18.10
2019-05-02T08:25:00.881Z,19.33
2019-05-02T08:27:48.458Z,19.07
2019-05-02T08:30:24.865Z,20.47
2019-05-02T08:32:56.396Z,20.07
2019-05-02T08:35:28.351Z,18.23
2019-05-02T08:38:00.244Z,19.23
2019-05-02T08:40:31.902Z,19.57
2019-05-02T08:43:08.625Z,18.20
2019-05-02T08:45:38.126Z,18.40
2019-05-02T08:48:09.720Z,18.07
2019-05-02T08:50:41.316Z,18.03
2019-05-02T08:53:14.271Z,17.17
2019-05-02T08:55:46.743Z,18.87
2019-05-02T08:58:18.509Z,17.13
2019-05-02T09:00:50.054Z,19.75
2019-05-02T09:03:21.554Z,16.48
2019-05-02T09:06:05.364Z,17.87
2019-05-02T09:08:28.854Z,19.40
2019-05-02T09:11:01.511Z,16.73
2019-05-02T09:13:33.144Z,18.82
2019-05-02T09:16:06.026Z,17.17
2019-05-02T09:18:42.384Z,17.17
2019-05-02T09:21:12.560Z,16.12
2019-05-02T09:23:44.397Z,20.02
2019-05-02T09:26:16.493Z,18.02
2019-05-02T09:28:48.668Z,17.05
2019-05-02T09:31:22.632Z,16.87
2019-05-02T09:33:55.687Z,17.82
2019-05-02T09:36:27.156Z,18.77
2019-05-02T09:38:58.551Z,19.37
2019-05-02T09:41:32.486Z,19.65
2019-05-02T09:44:09.006Z,20.27
2019-05-02T09:46:38.918Z,17.10
2019-05-02T09:49:15.763Z,20.57
2019-05-02T09:51:45.586Z,17.50
2019-05-02T09:54:23.034Z,15.68
2019-05-02T09:56:54.535Z,18.10
2019-05-02T09:59:33.122Z,14.90
2019-05-02T10:02:08.536Z,15.53
2019-05-02T10:04:43.494Z,14.85
2019-05-02T10:07:15.533Z,14.87
2019-05-02T10:09:46.987Z,15.23
2019-05-02T10:12:18.502Z,15.13
2019-05-02T10:14:50.161Z,14.53
2019-05-02T10:17:23.186Z,13.18
2019-05-02T10:19:57.109Z,14.35
2019-05-02T10:22:33.721Z,14.07
2019-05-02T10:25:02.563Z,13.32
2019-05-02T10:27:33.975Z,12.68
2019-05-02T10:30:11.763Z,9.88
2019-05-02T10:32:39.802Z,10.32
2019-05-02T10:35:14.768Z,12.37
2019-05-02T10:37:46.195Z,11.15
2019-05-02T10:40:17.700Z,10.75
2019-05-02T10:42:49.006Z,11.90
2019-05-02T10:45:22.408Z,10.80
2019-05-02T10:47:53.635Z,9.15
2019-05-02T10:50:29.435Z,9.18
2019-05-02T10:53:05.367Z,15.95
2019-05-02T10:55:33.874Z,13.43
2019-05-02T10:58:05.891Z,16.23
2019-05-02T11:00:38.978Z,12.37
2019-05-02T11:03:16.297Z,11.77
2019-05-02T11:05:52.862Z,14.30
2019-05-02T11:08:24.781Z,12.80
2019-05-02T11:10:57.408Z,12.67
2019-05-02T11:13:53.359Z,13.50
2019-05-02T11:16:37.115Z,12.03
2019-05-02T11:19:14.657Z,14.20
2019-05-02T11:21:55.337Z,14.27
2019-05-02T11:24:19.306Z,13.87
2019-05-02T11:26:52.684Z,18.40
2019-05-02T11:29:25.310Z,15.07
2019-05-02T11:31:56.759Z,15.80
2019-05-02T11:34:28.632Z,19.30
2019-05-02T11:37:01.747Z,13.23
2019-05-02T11:39:42.337Z,14.67
2019-05-02T11:42:06.923Z,13.93
2019-05-02T11:44:42.207Z,17.03
2019-05-02T11:47:17.316Z,16.33
2019-05-02T11:49:52.087Z,18.77
2019-05-02T11:52:22.556Z,14.97
2019-05-02T11:54:55.536Z,16.03
2019-05-02T11:57:30.699Z,16.20
2019-05-02T12:00:04.937Z,15.27
2019-05-02T12:02:58.246Z,14.90
2019-05-02T12:05:35.851Z,16.80
2019-05-02T12:08:12.201Z,18.37
2019-05-02T12:10:45.373Z,15.83
2019-05-02T12:13:17.210Z,15.47
2019-05-02T12:15:48.476Z,18.03
2019-05-02T12:18:23.158Z,16.87
2019-05-02T12:20:54.020Z,14.67
2019-05-02T12:23:25.304Z,14.68
2019-05-02T12:25:57.350Z,16.20
2019-05-02T12:28:32.358Z,14.40
2019-05-02T12:31:07.979Z,17.35
2019-05-02T12:33:42.530Z,11.75
2019-05-02T12:36:14.398Z,12.05
2019-05-02T12:38:47.034Z,13.58
2019-05-02T12:41:22.332Z,11.30
2019-05-02T12:43:52.477Z,12.82
2019-05-02T12:46:24.176Z,13.30
2019-05-02T12:48:56.099Z,13.55
2019-05-02T12:51:27.538Z,11.80
2019-05-02T12:53:58.989Z,11.83
2019-05-02T12:56:32.358Z,9.35
2019-05-02T12:59:05.364Z,10.10
2019-05-02T13:01:37.276Z,12.40
2019-05-02T13:04:12.456Z,11.73
2019-05-02T13:06:43.681Z,8.63
2019-05-02T13:09:15.096Z,11.83
2019-05-02T13:12:08.371Z,10.93
2019-05-02T13:14:39.739Z,11.10
2019-05-02T13:17:12.143Z,9.45
2019-05-02T13:19:55.803Z,10.55
2019-05-02T13:22:34.586Z,9.13
2019-05-02T13:25:12.934Z,10.00
2019-05-02T13:27:48.184Z,9.83
2019-05-02T13:30:42.872Z,10.05
2019-05-02T13:33:13.715Z,8.40
2019-05-02T13:35:48.609Z,7.75
2019-05-02T13:38:22.939Z,9.48
2019-05-02T13:40:54.662Z,11.38
2019-05-02T13:43:29.648Z,9.43
2019-05-02T13:46:14.711Z,9.25
2019-05-02T13:48:46.249Z,12.05
2019-05-02T13:51:17.588Z,7.65
2019-05-02T13:53:57.931Z,8.70
2019-05-02T13:56:52.796Z,8.88
2019-05-02T13:59:24.475Z,8.13
2019-05-02T14:01:55.978Z,11.90
2019-05-02T14:04:28.498Z,7.67
2019-05-02T14:07:00.233Z,10.35
2019-05-02T14:10:02.306Z,8.83
2019-05-02T14:12:58.128Z,9.83
2019-05-02T14:15:39.017Z,7.08
2019-05-02T14:18:12.420Z,11.43
2019-05-02T14:20:43.940Z,12.75
2019-05-02T14:23:15.295Z,12.37
2019-05-02T14:25:47.381Z,12.20
2019-05-02T14:28:19.015Z,11.08
2019-05-02T14:30:52.367Z,11.65
2019-05-02T14:33:25.267Z,13.43
2019-05-02T14:35:56.944Z,10.70
2019-05-02T14:38:28.292Z,10.08
2019-05-02T14:41:08.450Z,15.78
2019-05-02T14:43:52.581Z,13.48
2019-05-02T14:46:28.839Z,12.18
2019-05-02T14:48:59.216Z,10.55
2019-05-02T14:51:32.688Z,11.95
2019-05-02T14:54:08.210Z,12.60
2019-05-02T14:56:48.148Z,10.90
2019-05-02T14:59:20.223Z,9.10
2019-05-02T15:01:57.899Z,12.10
2019-05-02T15:04:28.382Z,9.95
2019-05-02T15:07:01.912Z,10.95
2019-05-02T15:09:36.109Z,10.35
2019-05-02T15:12:13.935Z,11.60
2019-05-02T15:14:40.029Z,12.70
2019-05-02T15:17:12.180Z,10.15
2019-05-02T15:19:43.772Z,11.93
2019-05-02T15:22:15.135Z,10.50
2019-05-02T15:24:46.342Z,15.45
2019-05-02T15:27:18.289Z,11.90
2019-05-02T15:29:53.938Z,14.45
2019-05-02T15:32:44.963Z,12.70
2019-05-02T15:35:31.775Z,15.08
2019-05-02T15:38:06.732Z,12.95
2019-05-02T15:40:48.123Z,14.93
2019-05-02T15:43:09.931Z,14.63
2019-05-02T15:45:44.150Z,11.63
2019-05-02T15:48:22.660Z,13.57
2019-05-02T15:50:52.122Z,13.37
2019-05-02T15:53:44.669Z,13.43
2019-05-02T15:56:20.013Z,16.70
2019-05-02T15:58:49.650Z,11.43
2019-05-02T16:01:32.166Z,14.00
2019-05-02T16:04:04.992Z,13.93
2019-05-02T16:06:36.405Z,15.57
2019-05-02T16:09:09.494Z,17.33
2019-05-02T16:11:43.462Z,14.83
2019-05-02T16:14:15.130Z,14.50
2019-05-02T16:16:46.409Z,13.87
2019-05-02T16:19:27.186Z,14.47
2019-05-02T16:22:08.955Z,12.10
2019-05-02T16:24:43.875Z,16.70
2019-05-02T16:27:16.415Z,15.30
2019-05-02T16:29:47.249Z,12.57
2019-05-02T16:32:37.889Z,17.07
2019-05-02T16:35:13.535Z,12.50
2019-05-02T16:37:46.698Z,13.27
2019-05-02T16:40:23.830Z,15.17
2019-05-02T16:42:51.854Z,11.37
2019-05-02T16:45:23.884Z,12.37
2019-05-02T16:48:00.328Z,16.53
2019-05-02T16:50:35.109Z,13.63
2019-05-02T16:53:02.403Z,12.20
2019-05-02T16:55:34.078Z,11.97
2019-05-02T16:58:07.273Z,14.57
2019-05-02T17:00:42.566Z,12.73
2019-05-02T17:03:12.729Z,15.53
2019-05-02T17:05:48.000Z,15.97
2019-05-02T17:08:27.423Z,12.37
2019-05-02T17:11:15.806Z,16.12
2019-05-02T17:13:47.292Z,16.40
2019-05-02T17:16:18.608Z,15.20
2019-05-02T17:18:52.977Z,13.85
2019-05-02T17:21:26.858Z,15.53
2019-05-02T17:23:56.550Z,15.60
2019-05-02T17:26:27.899Z,16.87
2019-05-02T17:28:59.261Z,18.17
2019-05-02T17:31:32.257Z,14.90
2019-05-02T17:34:03.672Z,17.93
2019-05-02T17:36:35.150Z,18.47
2019-05-02T17:39:08.664Z,19.60
2019-05-02T17:41:42.260Z,18.83
2019-05-02T17:44:18.513Z,18.07
2019-05-02T17:46:50.769Z,20.57
2019-05-02T17:49:23.918Z,17.73
2019-05-02T17:52:18.624Z,19.93
2019-05-02T17:54:44.460Z,20.17
2019-05-02T17:57:16.133Z,16.73
2019-05-02T17:59:47.680Z,21.03
2019-05-02T18:02:19.391Z,20.13
2019-05-02T18:04:52.143Z,20.07
2019-05-02T18:07:31.125Z,21.40
2019-05-02T18:09:57.177Z,20.73
2019-05-02T18:12:28.602Z,23.10
2019-05-02T18:15:01.407Z,22.03
2019-05-02T18:17:33.741Z,30.07
2019-05-02T18:20:06.740Z,20.57
2019-05-02T18:22:39.901Z,12.90
2019-05-02T18:25:16.269Z,11.50
2019-05-02T18:27:45.468Z,12.07
2019-05-02T18:30:26.717Z,9.43
2019-05-02T18:32:57.911Z,11.23
2019-05-02T18:35:28.434Z,14.40
2019-05-02T18:38:00.172Z,17.33
2019-05-02T18:40:32.144Z,12.13
2019-05-02T18:43:05.332Z,13.63
2019-05-02T18:45:37.001Z,13.30
2019-05-02T18:48:08.536Z,13.63
2019-05-02T18:50:46.946Z,14.17
2019-05-02T18:53:18.685Z,15.53
2019-05-02T18:55:51.887Z,14.63
2019-05-02T18:58:23.694Z,14.93
2019-05-02T19:00:55.353Z,17.33
2019-05-02T19:03:27.385Z,18.30
2019-05-02T19:06:02.143Z,17.97
2019-05-02T19:08:45.790Z,19.57
2019-05-02T19:11:12.628Z,21.03
2019-05-02T19:13:44.559Z,16.80
2019-05-02T19:16:19.267Z,17.10
2019-05-02T19:18:54.489Z,18.97
2019-05-02T19:21:26.435Z,18.97
2019-05-02T19:23:58.557Z,23.00
2019-05-02T19:26:30.202Z,19.30
2019-05-02T19:29:22.136Z,25.93
2019-05-02T19:31:54.862Z,24.67
2019-05-02T19:34:26.970Z,24.23
2019-05-02T19:37:03.091Z,26.90
2019-05-02T19:39:34.270Z,29.23
2019-05-02T19:42:06.448Z,37.40
2019-05-02T19:44:38.396Z,32.43
2019-05-02T19:47:15.703Z,32.47
2019-05-02T19:49:47.246Z,31.53
2019-05-02T19:52:16.182Z,31.17
2019-05-02T19:54:47.710Z,36.63
2019-05-02T19:57:24.753Z,35.00
2019-05-02T19:59:52.505Z,35.03
2019-05-02T20:02:23.995Z,37.87
2019-05-02T20:04:55.589Z,37.67
2019-05-02T20:07:27.185Z,38.00
2019-05-02T20:09:58.580Z,36.07
2019-05-02T20:12:30.105Z,32.50
2019-05-02T20:15:01.988Z,31.57
2019-05-02T20:17:33.187Z,32.13
2019-05-02T20:20:07.798Z,32.83
2019-05-02T20:22:40.973Z,33.27
2019-05-02T20:25:12.579Z,33.47
2019-05-02T20:27:44.350Z,32.37
2019-05-02T20:30:17.262Z,25.90
2019-05-02T20:32:48.539Z,28.13
2019-05-02T20:35:19.992Z,27.47
2019-05-02T20:37:52.569Z,26.33
2019-05-02T20:40:33.221Z,25.63
2019-05-02T20:43:05.587Z,24.00
2019-05-02T20:45:37.020Z,24.83
2019-05-02T20:48:08.513Z,24.80
2019-05-02T20:50:40.062Z,24.00
2019-05-02T20:53:12.831Z,26.43
2019-05-02T20:55:44.849Z,25.27
2019-05-02T20:58:16.216Z,25.93
2019-05-02T21:00:47.886Z,26.10
2019-05-02T21:03:19.175Z,22.30
2019-05-02T21:06:36.474Z,22.07
2019-05-02T21:09:18.656Z,22.00
2019-05-02T21:12:02.071Z,22.43
2019-05-02T21:14:35.720Z,23.60
2019-05-02T21:17:07.381Z,23.63
2019-05-02T21:19:38.730Z,23.23
2019-05-02T21:22:19.301Z,24.13
2019-05-02T21:24:52.694Z,23.00
2019-05-02T21:27:23.947Z,24.37
2019-05-02T21:29:55.412Z,21.27
2019-05-02T21:32:26.877Z,21.57
2019-05-02T21:34:58.374Z,24.43
2019-05-02T21:37:31.846Z,24.10
2019-05-02T21:40:02.995Z,22.37
2019-05-02T21:42:34.406Z,22.67
2019-05-02T21:45:06.222Z,25.47
2019-05-02T21:47:37.764Z,23.10
2019-05-02T21:50:25.104Z,23.53
2019-05-02T21:53:18.317Z,22.53
2019-05-02T21:55:59.654Z,21.20
2019-05-02T21:58:32.373Z,25.80
2019-05-02T22:01:09.838Z,21.90
2019-05-02T22:03:42.305Z,20.63
2019-05-02T22:06:14.752Z,20.10
2019-05-02T22:08:46.765Z,23.93
2019-05-02T22:11:18.152Z,22.67
2019-05-02T22:13:51.672Z,22.27
2019-05-02T22:16:23.043Z,20.57
2019-05-02T22:18:54.699Z,20.03
2019-05-02T22:21:26.394Z,22.73
2019-05-02T22:24:08.251Z,21.10
2019-05-02T22:26:32.741Z,21.80
2019-05-02T22:29:04.445Z,24.50
2019-05-02T22:31:35.982Z,21.50
2019-05-02T22:34:08.228Z,22.73
2019-05-02T22:36:39.606Z,24.67
2019-05-02T22:39:31.714Z,23.93
2019-05-02T22:42:04.697Z,27.37
2019-05-02T22:44:36.565Z,24.33
2019-05-02T22:47:08.934Z,27.83
2019-05-02T22:49:42.287Z,27.77
2019-05-02T22:52:14.394Z,26.83
2019-05-02T22:54:46.012Z,29.63
2019-05-02T22:57:17.423Z,27.20
2019-05-02T22:59:49.025Z,26.17
2019-05-02T23:02:21.977Z,28.10
2019-05-02T23:04:53.616Z,26.67
2019-05-02T23:07:25.625Z,28.47
2019-05-02T23:09:57.277Z,28.50
2019-05-02T23:12:28.625Z,30.33
2019-05-02T23:15:02.008Z,29.13
2019-05-02T23:17:33.679Z,28.17
2019-05-02T23:20:05.950Z,31.33
2019-05-02T23:22:38.117Z,29.87
2019-05-02T23:25:42.560Z,32.83
2019-05-02T23:28:17.798Z,30.53
2019-05-02T23:30:49.560Z,31.13
2019-05-02T23:33:23.395Z,31.40
2019-05-02T23:35:54.149Z,31.10
2019-05-02T23:38:25.878Z,31.73
2019-05-02T23:40:57.871Z,29.63
2019-05-02T23:43:29.293Z,32.37
2019-05-02T23:46:02.291Z,29.27
2019-05-02T23:48:33.660Z,28.20
2019-05-02T23:51:05.091Z,30.20
2019-05-02T23:53:36.483Z,30.50
2019-05-02T23:56:08.031Z,29.40
2019-05-02T23:58:39.488Z,30.13
